Time;durP1;ratioP1;P1;durP2;ratioP2;P2;SDS_P1;SDS_P2;PMS_P1;PMS_P2;Temp;Humidity;BMP_temperature;BMP_pressure;BME280_temperature;BME280_humidity;BME280_pressure;Samples;Min_cycle;Max_cycle;Signal;HPM_P1;HPM_P2
2022/06/09 00:00:56;;;;;;;1999.90;999.90;;;18.10;99.90;;;;;;5075712;22;21354;-70
2022/06/09 00:03:29;;;;;;;1999.90;999.90;;;17.90;99.90;;;;;;5050701;28;21150;-67
2022/06/09 00:05:56;;;;;;;1999.90;999.90;;;17.70;99.90;;;;;;5048415;28;20514;-69
2022/06/09 00:08:25;;;;;;;1999.90;999.90;;;17.70;99.90;;;;;;5048617;28;20528;-70
2022/06/09 00:10:56;;;;;;;1999.90;999.90;;;17.80;99.90;;;;;;5051356;28;20487;-69
2022/06/09 00:13:24;;;;;;;1999.90;999.90;;;17.80;99.90;;;;;;5052190;28;20466;-69
2022/06/09 00:15:50;;;;;;;1999.90;999.90;;;17.80;99.90;;;;;;5045168;28;20466;-70
2022/06/09 00:18:17;;;;;;;1999.90;999.90;;;17.80;99.90;;;;;;5036624;28;20943;-70
2022/06/09 00:20:45;;;;;;;1999.90;999.90;;;17.80;99.90;;;;;;5043024;28;20949;-69
2022/06/09 00:23:13;;;;;;;1999.90;999.90;;;17.60;99.90;;;;;;5048203;28;20470;-67
2022/06/09 00:25:40;;;;;;;1999.90;999.90;;;17.40;99.90;;;;;;5050309;28;21272;-70
2022/06/09 00:28:07;;;;;;;1999.90;999.90;;;17.60;99.90;;;;;;5048524;28;20495;-68
2022/06/09 00:30:34;;;;;;;1999.90;999.90;;;17.60;99.90;;;;;;5048281;28;20466;-70
2022/06/09 00:33:01;;;;;;;1999.90;999.90;;;17.40;99.90;;;;;;5048383;28;20462;-69
2022/06/09 00:35:27;;;;;;;1999.90;999.90;;;17.50;99.90;;;;;;5050970;28;20462;-69
2022/06/09 00:37:56;;;;;;;1999.90;999.90;;;17.60;99.90;;;;;;5048372;28;20516;-69
2022/06/09 00:40:23;;;;;;;1999.90;999.90;;;17.50;99.90;;;;;;5050785;28;20462;-69
2022/06/09 00:42:50;;;;;;;1999.90;999.90;;;17.40;99.90;;;;;;5049086;28;20942;-70
2022/06/09 00:45:25;;;;;;;1999.90;999.90;;;17.50;99.90;;;;;;5052054;28;20982;-69
2022/06/09 00:47:53;;;;;;;1999.90;999.90;;;17.60;99.90;;;;;;5048323;28;20891;-69
2022/06/09 00:50:22;;;;;;;1999.90;999.90;;;17.50;99.90;;;;;;5051249;28;20463;-69
2022/06/09 00:52:53;;;;;;;1999.90;999.90;;;17.20;99.90;;;;;;5049276;28;20544;-69
2022/06/09 00:55:25;;;;;;;1999.90;999.90;;;17.10;99.90;;;;;;5051076;28;20508;-69
2022/06/09 00:57:55;;;;;;;1999.90;999.90;;;17.10;99.90;;;;;;5050058;28;20466;-69
2022/06/09 01:00:28;;;;;;;1999.90;999.90;;;17.10;99.90;;;;;;5050265;28;20462;-69
2022/06/09 01:02:57;;;;;;;1999.90;999.90;;;17.20;99.90;;;;;;5050134;28;20507;-69
2022/06/09 01:05:27;;;;;;;1999.90;999.90;;;16.90;99.90;;;;;;5050237;28;20485;-70
2022/06/09 01:07:58;;;;;;;1999.90;999.90;;;17.00;99.90;;;;;;5048065;28;20458;-70
2022/06/09 01:10:28;;;;;;;1999.90;999.90;;;17.00;99.90;;;;;;5049172;28;20462;-68
2022/06/09 01:12:54;;;;;;;1999.90;999.90;;;16.90;99.90;;;;;;5050021;28;20470;-70
2022/06/09 01:15:23;;;;;;;1999.90;999.90;;;16.90;99.90;;;;;;5051310;28;20966;-69
2022/06/09 01:18:01;;;;;;;1999.90;999.90;;;16.90;99.90;;;;;;5049550;28;20516;-71
2022/06/09 01:20:39;;;;;;;1999.90;999.90;;;16.80;99.90;;;;;;5050516;28;20466;-72
2022/06/09 01:23:53;;;;;;;1999.90;999.90;;;16.80;99.90;;;;;;5048939;28;20847;-71
2022/06/09 01:27:05;;;;;;;1999.90;999.90;;;16.70;99.90;;;;;;5051055;28;20858;-72
2022/06/09 01:29:39;;;;;;;1999.90;999.90;;;16.60;99.90;;;;;;5049049;28;20540;-71
2022/06/09 01:32:14;;;;;;;1999.90;999.90;;;16.70;99.90;;;;;;5048293;28;20491;-71
2022/06/09 01:34:46;;;;;;;1999.90;999.90;;;16.40;99.90;;;;;;5046895;28;20463;-72
2022/06/09 01:37:15;;;;;;;1999.90;999.90;;;16.50;99.90;;;;;;5050236;28;20462;-71
2022/06/09 01:39:48;;;;;;;1999.90;999.90;;;16.50;99.90;;;;;;5050425;28;20459;-73
2022/06/09 01:42:23;;;;;;;1999.90;999.90;;;16.50;99.90;;;;;;5049987;28;20535;-71
2022/06/09 01:44:52;;;;;;;1999.90;999.90;;;16.50;99.90;;;;;;5049468;28;20474;-71
2022/06/09 01:47:23;;;;;;;1999.90;999.90;;;16.50;99.90;;;;;;5050095;28;20882;-71
2022/06/09 01:49:53;;;;;;;1999.90;999.90;;;16.40;99.90;;;;;;5049401;28;20470;-70
2022/06/09 01:52:22;;;;;;;1999.90;999.90;;;16.50;99.90;;;;;;5049810;28;20527;-70
2022/06/09 01:54:50;;;;;;;1999.90;999.90;;;16.40;99.90;;;;;;5048928;28;20470;-70
2022/06/09 01:57:21;;;;;;;1999.90;999.90;;;16.30;99.90;;;;;;5049659;28;20474;-71
2022/06/09 01:59:51;;;;;;;1999.90;999.90;;;16.30;99.90;;;;;;5049101;28;20458;-71
2022/06/09 02:02:23;;;;;;;1999.90;999.90;;;16.20;99.90;;;;;;5048734;28;20486;-73
2022/06/09 02:04:52;;;;;;;1999.90;999.90;;;16.20;99.90;;;;;;5047409;28;20473;-72
2022/06/09 02:07:21;;;;;;;1999.90;999.90;;;16.20;99.90;;;;;;5050398;28;20459;-72
2022/06/09 02:09:48;;;;;;;1999.90;999.90;;;16.10;99.90;;;;;;5048464;28;20486;-70
2022/06/09 02:12:17;;;;;;;1999.90;999.90;;;16.00;99.90;;;;;;5049997;28;20478;-71
2022/06/09 02:14:46;;;;;;;1999.90;999.90;;;15.90;99.90;;;;;;5044671;28;20467;-72
2022/06/09 02:17:13;;;;;;;1999.90;999.90;;;15.80;99.90;;;;;;5043736;28;20463;-71
2022/06/09 02:19:42;;;;;;;1999.90;999.90;;;15.90;99.90;;;;;;5049893;28;20516;-71
2022/06/09 02:22:11;;;;;;;1999.90;999.90;;;16.00;99.90;;;;;;5048881;28;20482;-71
2022/06/09 02:24:38;;;;;;;1999.90;999.90;;;16.10;99.90;;;;;;5045576;28;20500;-71
2022/06/09 02:27:06;;;;;;;1999.90;999.90;;;16.00;99.90;;;;;;5048993;28;20451;-71
2022/06/09 02:29:34;;;;;;;1999.90;999.90;;;16.00;99.90;;;;;;5048858;28;20505;-72
2022/06/09 02:32:00;;;;;;;1999.90;999.90;;;15.90;99.90;;;;;;5048869;28;20481;-71
2022/06/09 02:34:27;;;;;;;1999.90;999.90;;;15.90;99.90;;;;;;5049087;28;20524;-71
2022/06/09 02:36:55;;;;;;;1999.90;999.90;;;15.80;99.90;;;;;;5048316;28;20533;-71
2022/06/09 02:39:22;;;;;;;1999.90;999.90;;;15.70;99.90;;;;;;5048746;28;20454;-71
2022/06/09 02:41:49;;;;;;;1999.90;999.90;;;15.70;99.90;;;;;;5047987;28;20540;-72
2022/06/09 02:44:15;;;;;;;1999.90;999.90;;;15.80;99.90;;;;;;5049075;28;20492;-72
2022/06/09 02:46:43;;;;;;;1999.90;999.90;;;15.90;99.90;;;;;;5048217;28;20462;-69
2022/06/09 02:49:10;;;;;;;1999.90;999.90;;;15.80;99.90;;;;;;5047429;28;21067;-70
2022/06/09 02:51:41;;;;;;;1999.90;999.90;;;15.70;99.90;;;;;;5049287;28;20868;-71
2022/06/09 02:54:12;;;;;;;1999.90;999.90;;;15.70;99.90;;;;;;5048202;28;20520;-71
2022/06/09 02:56:41;;;;;;;1999.90;999.90;;;15.70;99.90;;;;;;5045546;28;20494;-72
2022/06/09 02:59:07;;;;;;;1999.90;999.90;;;15.80;99.90;;;;;;5045669;28;20456;-71
2022/06/09 03:01:34;;;;;;;1999.90;999.90;;;15.80;99.90;;;;;;5048530;28;20555;-71
2022/06/09 03:04:02;;;;;;;1999.90;999.90;;;15.70;99.90;;;;;;5044887;28;20467;-71
2022/06/09 03:06:29;;;;;;;1999.90;999.90;;;15.70;99.90;;;;;;5049476;28;20511;-71
2022/06/09 03:08:55;;;;;;;1999.90;999.90;;;15.60;99.90;;;;;;5044762;28;20504;-71
2022/06/09 03:11:23;;;;;;;1999.90;999.90;;;15.70;99.90;;;;;;5047569;28;20567;-71
2022/06/09 03:13:50;;;;;;;1999.90;999.90;;;15.70;99.90;;;;;;5047655;28;20887;-71
2022/06/09 03:16:18;;;;;;;1999.90;999.90;;;15.60;99.90;;;;;;5049644;28;20498;-71
2022/06/09 03:18:45;;;;;;;1999.90;999.90;;;15.60;99.90;;;;;;5049080;28;20600;-71
2022/06/09 03:21:13;;;;;;;1999.90;999.90;;;15.50;99.90;;;;;;5047874;28;20488;-71
2022/06/09 03:23:40;;;;;;;1999.90;999.90;;;15.60;99.90;;;;;;5046109;28;20459;-70
2022/06/09 03:26:07;;;;;;;1999.90;999.90;;;15.60;99.90;;;;;;5048307;28;20462;-71
2022/06/09 03:28:35;;;;;;;1999.90;999.90;;;15.60;99.90;;;;;;5048234;28;20549;-70
2022/06/09 03:31:02;;;;;;;1999.90;999.90;;;15.60;99.90;;;;;;5048977;28;20478;-71
2022/06/09 03:33:28;;;;;;;1999.90;999.90;;;15.60;99.90;;;;;;5049215;28;20528;-71
2022/06/09 03:35:55;;;;;;;1999.90;999.90;;;15.60;99.90;;;;;;5048274;28;20883;-71
2022/06/09 03:38:22;;;;;;;1999.90;999.90;;;15.60;99.90;;;;;;5049225;28;20462;-71
2022/06/09 03:40:48;;;;;;;1999.90;999.90;;;15.70;99.90;;;;;;5047925;28;20898;-71
2022/06/09 03:43:15;;;;;;;1999.90;999.90;;;15.70;99.90;;;;;;5047749;28;20942;-72
2022/06/09 03:45:43;;;;;;;1999.90;999.90;;;15.90;99.90;;;;;;5049255;28;20507;-71
2022/06/09 03:48:10;;;;;;;1999.90;999.90;;;15.80;99.90;;;;;;5048623;28;20462;-71
2022/06/09 03:50:37;;;;;;;1999.90;999.90;;;16.10;99.90;;;;;;5045291;28;20543;-71
2022/06/09 03:53:03;;;;;;;1999.90;999.90;;;16.10;99.90;;;;;;5048030;28;20527;-71
2022/06/09 03:55:30;;;;;;;1999.90;999.90;;;16.20;99.90;;;;;;5048402;28;20466;-72
2022/06/09 03:57:57;;;;;;;1999.90;999.90;;;16.30;99.90;;;;;;5052080;28;20520;-71
2022/06/09 04:00:26;;;;;;;1999.90;999.90;;;16.20;99.90;;;;;;5050413;28;20461;-71
2022/06/09 04:02:54;;;;;;;1999.90;999.90;;;16.10;99.90;;;;;;5051061;28;20469;-71
2022/06/09 04:05:20;;;;;;;1999.90;999.90;;;16.10;99.90;;;;;;5051670;28;20819;-71
2022/06/09 04:07:47;;;;;;;1999.90;999.90;;;16.30;99.90;;;;;;5051116;28;20535;-69
2022/06/09 04:10:18;;;;;;;1999.90;999.90;;;16.30;99.90;;;;;;5051386;28;20486;-71
2022/06/09 04:12:45;;;;;;;1999.90;999.90;;;16.30;99.90;;;;;;5050846;28;20493;-70
2022/06/09 04:15:13;;;;;;;1999.90;999.90;;;16.40;99.90;;;;;;5051996;28;20537;-71
2022/06/09 04:17:40;;;;;;;1999.90;999.90;;;16.30;99.90;;;;;;5050568;28;20447;-71
2022/06/09 04:20:10;;;;;;;1999.90;999.90;;;16.30;99.90;;;;;;5052628;28;20512;-71
2022/06/09 04:22:36;;;;;;;1999.90;999.90;;;16.30;99.90;;;;;;5051336;28;20481;-71
2022/06/09 04:25:04;;;;;;;1999.90;999.90;;;16.30;99.90;;;;;;5052268;28;20493;-71
2022/06/09 04:27:31;;;;;;;1999.90;999.90;;;16.30;99.90;;;;;;5053145;28;20870;-70
2022/06/09 04:29:58;;;;;;;1999.90;999.90;;;16.20;99.90;;;;;;5052964;28;20489;-71
2022/06/09 04:32:24;;;;;;;1999.90;999.90;;;16.20;99.90;;;;;;5050564;28;20478;-71
2022/06/09 04:34:51;;;;;;;1999.90;999.90;;;16.10;99.90;;;;;;5050823;28;20463;-72
2022/06/09 04:37:19;;;;;;;1999.90;999.90;;;16.00;99.90;;;;;;5052709;28;21023;-71
2022/06/09 04:39:46;;;;;;;1999.90;999.90;;;16.10;99.90;;;;;;5050833;28;20469;-71
2022/06/09 04:42:13;;;;;;;1999.90;999.90;;;16.20;99.90;;;;;;5050989;28;20861;-70
2022/06/09 04:44:39;;;;;;;1999.90;999.90;;;16.40;99.90;;;;;;5050915;28;20459;-70
2022/06/09 04:47:06;;;;;;;1999.90;999.90;;;16.40;99.90;;;;;;5050823;28;20462;-71
2022/06/09 04:49:33;;;;;;;1999.90;999.90;;;16.50;99.90;;;;;;5051521;28;20474;-70
2022/06/09 04:51:59;;;;;;;1999.90;999.90;;;16.60;99.90;;;;;;5050248;28;20513;-71
2022/06/09 04:54:27;;;;;;;1999.90;999.90;;;16.80;99.90;;;;;;5050317;28;20466;-71
2022/06/09 04:56:54;;;;;;;1999.90;999.90;;;16.80;99.90;;;;;;5050322;28;21021;-71
2022/06/09 04:59:20;;;;;;;1999.90;999.90;;;16.80;99.90;;;;;;5051574;28;20512;-69
2022/06/09 05:01:47;;;;;;;1999.90;999.90;;;16.80;99.90;;;;;;5051009;28;20493;-67
2022/06/09 05:04:14;;;;;;;1999.90;999.90;;;16.80;99.90;;;;;;5050916;28;20520;-70
2022/06/09 05:06:41;;;;;;;1999.90;999.90;;;16.80;99.90;;;;;;5051132;28;20474;-69
2022/06/09 05:09:07;;;;;;;1999.90;999.90;;;16.80;99.90;;;;;;5050369;28;20552;-70
2022/06/09 05:11:35;;;;;;;1999.90;999.90;;;16.80;99.90;;;;;;5049583;28;20513;-68
2022/06/09 05:14:02;;;;;;;1999.90;999.90;;;16.60;99.90;;;;;;5050151;28;20474;-69
2022/06/09 05:16:29;;;;;;;1999.90;999.90;;;16.50;99.90;;;;;;5051841;28;20478;-69
2022/06/09 05:18:55;;;;;;;1999.90;999.90;;;16.60;99.90;;;;;;5049246;28;21035;-69
2022/06/09 05:21:22;;;;;;;1999.90;999.90;;;16.80;99.90;;;;;;5051575;28;20470;-69
2022/06/09 05:23:48;;;;;;;1999.90;999.90;;;16.90;99.90;;;;;;5049773;28;20551;-69
2022/06/09 05:26:16;;;;;;;1999.90;999.90;;;16.90;99.90;;;;;;5049414;28;20803;-69
2022/06/09 05:28:44;;;;;;;1999.90;999.90;;;16.90;99.90;;;;;;5048386;28;20553;-70
2022/06/09 05:31:11;;;;;;;1999.90;999.90;;;17.20;99.90;;;;;;5049364;28;20497;-69
2022/06/09 05:33:38;;;;;;;1999.90;999.90;;;17.30;99.90;;;;;;5045454;28;20467;-69
2022/06/09 05:36:05;;;;;;;1999.90;999.90;;;17.10;99.90;;;;;;5050073;28;20458;-70
2022/06/09 05:46:48;;;;;;;1999.90;999.90;;;17.30;99.90;;;;;;5045742;28;20524;-69
2022/06/09 05:49:15;;;;;;;1999.90;999.90;;;17.20;99.90;;;;;;5043993;28;20513;-69
2022/06/09 05:51:42;;;;;;;1999.90;999.90;;;17.30;99.90;;;;;;5048177;28;20524;-69
2022/06/09 05:54:09;;;;;;;1999.90;999.90;;;17.40;99.90;;;;;;5047440;28;20462;-69
2022/06/09 05:56:36;;;;;;;1999.90;999.90;;;17.60;99.90;;;;;;5048412;28;20512;-66
2022/06/09 05:59:04;;;;;;;1999.90;999.90;;;17.70;99.90;;;;;;5048879;28;20461;-69
2022/06/09 06:03:58;;;;;;;1999.90;999.90;;;17.90;99.90;;;;;;5065260;28;20469;-69
2022/06/09 06:06:34;;;;;;;1999.90;999.90;;;17.80;99.90;;;;;;5067243;28;20469;-69
2022/06/09 06:09:02;;;;;;;1999.90;999.90;;;17.80;99.90;;;;;;5067818;28;20975;-69
2022/06/09 06:11:28;;;;;;;1999.90;999.90;;;17.70;99.90;;;;;;5066437;28;20485;-68
2022/06/09 06:13:55;;;;;;;1999.90;999.90;;;17.90;99.90;;;;;;5045659;28;20466;-69
2022/06/09 06:16:24;;;;;;;1999.90;999.90;;;18.00;99.90;;;;;;5047757;28;20846;-68
2022/06/09 06:18:51;;;;;;;1999.90;999.90;;;18.20;99.90;;;;;;5040328;28;20468;-69
2022/06/09 06:21:18;;;;;;;1999.90;999.90;;;18.30;99.90;;;;;;5048832;28;20508;-69
2022/06/09 06:23:45;;;;;;;1999.90;999.90;;;18.50;99.90;;;;;;5047826;28;21016;-68
2022/06/09 06:26:12;;;;;;;1999.90;999.90;;;18.80;99.90;;;;;;5047749;28;20494;-69
2022/06/09 06:28:39;;;;;;;1999.90;999.90;;;19.30;99.90;;;;;;5048531;28;20466;-69
2022/06/09 06:31:06;;;;;;;1999.90;999.90;;;19.50;99.90;;;;;;5047391;28;20522;-68
2022/06/09 06:33:34;;;;;;;1999.90;999.90;;;19.70;99.90;;;;;;5046933;28;21044;-69
2022/06/09 06:36:00;;;;;;;1999.90;999.90;;;19.80;99.90;;;;;;5047199;28;21013;-69
2022/06/09 06:38:27;;;;;;;1999.90;999.90;;;19.80;99.90;;;;;;5044928;28;20470;-69
2022/06/09 06:40:54;;;;;;;1999.90;999.90;;;19.80;99.90;;;;;;5046965;28;20496;-69
2022/06/09 06:43:21;;;;;;;1999.90;999.90;;;19.80;99.90;;;;;;5048942;28;21070;-69
2022/06/09 06:45:48;;;;;;;1999.90;999.90;;;19.90;99.90;;;;;;5048098;28;20893;-69
2022/06/09 06:48:15;;;;;;;1999.90;999.90;;;19.30;99.90;;;;;;5047718;28;20516;-69
2022/06/09 06:50:43;;;;;;;1999.90;999.90;;;19.10;99.90;;;;;;5048283;28;20482;-69
2022/06/09 06:53:12;;;;;;;1999.90;999.90;;;19.00;99.90;;;;;;5050125;28;20482;-69
2022/06/09 06:55:39;;;;;;;1999.90;999.90;;;18.80;99.90;;;;;;5043074;28;20473;-69
2022/06/09 06:58:06;;;;;;;1999.90;999.90;;;18.80;99.90;;;;;;5045514;28;20539;-69
2022/06/09 07:00:33;;;;;;;1999.90;999.90;;;19.00;99.90;;;;;;5048884;28;20466;-69
2022/06/09 07:03:00;;;;;;;1999.90;999.90;;;19.20;99.90;;;;;;5047968;28;21033;-69
2022/06/09 07:05:27;;;;;;;1999.90;999.90;;;19.50;99.90;;;;;;5048415;28;20520;-68
2022/06/09 07:07:56;;;;;;;1999.90;999.90;;;20.40;99.90;;;;;;5046981;28;21199;-69
2022/06/09 07:10:23;;;;;;;1999.90;999.90;;;20.90;99.90;;;;;;5046327;28;21119;-68
2022/06/09 07:12:50;;;;;;;1999.90;999.90;;;21.20;99.90;;;;;;5047207;28;20556;-69
2022/06/09 07:15:18;;;;;;;1999.90;999.90;;;20.80;99.90;;;;;;5045392;28;20540;-69
2022/06/09 07:17:44;;;;;;;1999.90;999.90;;;20.40;99.90;;;;;;5046273;28;21024;-70
2022/06/09 07:20:13;;;;;;;1999.90;999.90;;;20.30;99.90;;;;;;5048408;28;20462;-69
2022/06/09 07:22:40;;;;;;;1999.90;999.90;;;20.60;99.90;;;;;;5040143;28;20551;-69
2022/06/09 07:25:12;;;;;;;1999.90;999.90;;;20.60;99.90;;;;;;5047600;28;20461;-69
2022/06/09 07:27:38;;;;;;;1999.90;999.90;;;20.70;99.90;;;;;;5042496;28;20474;-69
2022/06/09 07:30:06;;;;;;;1999.90;999.90;;;20.90;99.90;;;;;;5044601;28;20466;-69
2022/06/09 07:32:33;;;;;;;1999.90;999.90;;;20.90;99.90;;;;;;5050083;28;20485;-69
2022/06/09 07:34:59;;;;;;;1999.90;999.90;;;21.00;99.90;;;;;;5048868;28;21012;-69
2022/06/09 07:37:26;;;;;;;1999.90;999.90;;;21.00;99.90;;;;;;5051719;28;20957;-69
2022/06/09 07:39:53;;;;;;;1999.90;999.90;;;21.60;99.90;;;;;;5047915;28;20466;-69
2022/06/09 07:42:21;;;;;;;1999.90;999.90;;;21.50;99.90;;;;;;5051380;28;20516;-69
2022/06/09 07:44:49;;;;;;;1999.90;999.90;;;21.30;99.90;;;;;;5052819;28;20462;-69
2022/06/09 07:47:16;;;;;;;1999.90;999.90;;;21.20;99.90;;;;;;5051616;28;20469;-68
2022/06/09 07:49:43;;;;;;;1999.90;999.90;;;21.40;99.90;;;;;;5050077;28;20470;-69
2022/06/09 07:52:10;;;;;;;1999.90;999.90;;;21.90;99.90;;;;;;5048287;28;20623;-69
2022/06/09 07:54:37;;;;;;;1999.90;999.90;;;21.60;99.90;;;;;;5046820;28;20458;-70
2022/06/09 07:57:04;;;;;;;1999.90;999.90;;;22.40;99.90;;;;;;5047866;28;20450;-70
2022/06/09 07:59:32;;;;;;;1999.90;999.90;;;22.60;99.90;;;;;;5053445;28;20442;-69
2022/06/09 08:01:58;;;;;;;1999.90;999.90;;;22.70;99.90;;;;;;5061947;28;20469;-70
2022/06/09 08:04:25;;;;;;;1999.90;999.90;;;22.80;99.90;;;;;;5052170;28;21035;-70
2022/06/09 08:06:52;;;;;;;1999.90;999.90;;;22.90;99.90;;;;;;5046613;28;20959;-70
2022/06/09 08:09:18;;;;;;;1999.90;999.90;;;23.10;99.90;;;;;;5051742;28;20534;-70
2022/06/09 08:11:47;;;;;;;1999.90;999.90;;;23.40;99.90;;;;;;5053114;28;20489;-70
2022/06/09 08:14:14;;;;;;;1999.90;999.90;;;23.40;99.90;;;;;;5046125;28;20502;-69
2022/06/09 08:16:43;;;;;;;1999.90;999.90;;;23.20;99.90;;;;;;5048661;28;20488;-70
2022/06/09 08:19:10;;;;;;;1999.90;999.90;;;23.20;99.90;;;;;;5054312;28;20450;-70
2022/06/09 08:21:37;;;;;;;1999.90;999.90;;;22.80;99.90;;;;;;5048858;28;20824;-70
2022/06/09 08:24:05;;;;;;;1999.90;999.90;;;22.60;99.90;;;;;;5050565;28;20511;-70
2022/06/09 08:26:32;;;;;;;1999.90;999.90;;;22.40;99.90;;;;;;5052592;28;20461;-70
2022/06/09 08:28:59;;;;;;;1999.90;999.90;;;22.30;99.90;;;;;;5049450;28;20493;-69
2022/06/09 08:31:25;;;;;;;1999.90;999.90;;;22.40;99.90;;;;;;5050863;28;20478;-69
2022/06/09 08:33:54;;;;;;;1999.90;999.90;;;22.00;99.90;;;;;;5050198;28;20466;-69
2022/06/09 08:36:20;;;;;;;1999.90;999.90;;;21.80;99.90;;;;;;5050231;28;20539;-70
2022/06/09 08:38:48;;;;;;;1999.90;999.90;;;21.80;99.90;;;;;;5051511;28;20458;-70
2022/06/09 08:41:34;;;;;;;1999.90;999.90;;;21.80;99.90;;;;;;5048719;28;20451;-68
2022/06/09 08:44:11;;;;;;;1999.90;999.90;;;21.90;99.90;;;;;;5050278;28;20511;-69
2022/06/09 08:46:48;;;;;;;1999.90;999.90;;;21.70;99.90;;;;;;5050708;28;20855;-69
2022/06/09 08:49:32;;;;;;;1999.90;999.90;;;21.70;99.90;;;;;;5047876;28;20461;-69
2022/06/09 08:52:04;;;;;;;1999.90;999.90;;;21.40;99.90;;;;;;5048619;28;20993;-69
2022/06/09 08:54:34;;;;;;;1999.90;999.90;;;21.30;99.90;;;;;;5034571;28;20443;-69
2022/06/09 08:57:04;;;;;;;1999.90;999.90;;;21.00;99.90;;;;;;5046733;28;21124;-69
2022/06/09 08:59:37;;;;;;;1999.90;999.90;;;21.40;99.90;;;;;;5049963;28;20508;-69
2022/06/09 09:02:18;;;;;;;1999.90;999.90;;;21.60;99.90;;;;;;5046751;28;20521;-70
2022/06/09 09:04:50;;;;;;;1999.90;999.90;;;22.10;99.90;;;;;;5046157;28;20504;-70
2022/06/09 09:07:25;;;;;;;1999.90;999.90;;;22.60;99.90;;;;;;5041984;28;20462;-68
2022/06/09 09:09:56;;;;;;;1999.90;999.90;;;22.80;99.90;;;;;;5045974;28;20852;-69
2022/06/09 09:12:32;;;;;;;1999.90;999.90;;;23.10;99.90;;;;;;5047652;28;20485;-70
2022/06/09 09:15:12;;;;;;;1999.90;999.90;;;23.00;99.90;;;;;;5046355;28;20462;-69
2022/06/09 09:17:48;;;;;;;1999.90;999.90;;;22.70;99.90;;;;;;5050504;28;20495;-70
2022/06/09 09:20:22;;;;;;;1999.90;999.90;;;22.60;99.90;;;;;;5040286;28;21064;-70
2022/06/09 09:23:01;;;;;;;1999.90;999.90;;;22.40;99.90;;;;;;5042420;28;20489;-70
2022/06/09 09:25:37;;;;;;;1999.90;999.90;;;22.80;99.90;;;;;;5049378;28;20497;-70
2022/06/09 09:28:13;;;;;;;1999.90;999.90;;;22.80;99.90;;;;;;5045324;28;20520;-67
2022/06/09 09:30:48;;;;;;;1999.90;999.90;;;22.30;99.90;;;;;;5047329;28;20465;-69
2022/06/09 09:33:19;;;;;;;1999.90;999.90;;;22.50;99.90;;;;;;5047274;28;20539;-70
2022/06/09 09:35:50;;;;;;;1999.90;999.90;;;22.90;99.90;;;;;;5045188;28;20466;-70
2022/06/09 09:38:20;;;;;;;1999.90;999.90;;;23.10;99.00;;;;;;5047713;28;20494;-69
2022/06/09 09:40:49;;;;;;;1999.90;999.90;;;22.70;99.20;;;;;;5046414;28;20463;-69
2022/06/09 09:43:18;;;;;;;1999.90;999.90;;;22.30;99.90;;;;;;5046463;28;21044;-70
2022/06/09 09:45:48;;;;;;;1999.90;999.90;;;22.30;99.90;;;;;;5043129;28;20458;-69
2022/06/09 09:48:31;;;;;;;1999.90;999.90;;;22.60;99.90;;;;;;5041948;28;20463;-69
2022/06/09 09:51:05;;;;;;;1999.90;999.90;;;22.40;99.90;;;;;;5042355;28;20484;-68
2022/06/09 09:53:34;;;;;;;1999.90;999.90;;;22.00;99.90;;;;;;5039289;28;20933;-69
2022/06/09 09:56:05;;;;;;;1999.90;999.90;;;22.10;99.90;;;;;;5048964;28;20520;-67
2022/06/09 09:58:38;;;;;;;1999.90;999.90;;;22.10;99.90;;;;;;5049891;28;20462;-70
2022/06/09 10:01:25;;;;;;;1999.90;999.90;;;22.40;99.90;;;;;;5052495;28;20438;-70
2022/06/09 10:09:33;;;;;;;1999.90;999.90;;;22.20;99.90;;;;;;5032466;28;20907;-70
2022/06/09 10:12:04;;;;;;;1999.90;999.90;;;22.00;99.90;;;;;;5037735;28;20482;-69
2022/06/09 10:14:49;;;;;;;1999.90;999.90;;;22.40;99.90;;;;;;5051544;28;20500;-70
2022/06/09 10:17:34;;;;;;;1999.90;999.90;;;22.70;99.90;;;;;;5052357;28;20501;-70
2022/06/09 10:20:18;;;;;;;1999.90;999.90;;;23.00;99.70;;;;;;5051897;28;20453;-70
2022/06/09 10:22:57;;;;;;;1999.90;999.90;;;23.00;99.40;;;;;;5039836;28;20471;-70
2022/06/09 10:25:28;;;;;;;1999.90;999.90;;;23.10;99.60;;;;;;5032482;28;20443;-70
2022/06/09 10:28:01;;;;;;;1999.90;999.90;;;23.50;99.40;;;;;;5031831;28;21009;-70
2022/06/09 10:30:36;;;;;;;1999.90;999.90;;;23.80;99.20;;;;;;5031801;28;20483;-70
2022/06/09 10:33:09;;;;;;;1999.90;999.90;;;23.10;99.50;;;;;;5033015;28;20569;-70
2022/06/09 10:35:42;;;;;;;1999.90;999.90;;;22.30;99.90;;;;;;5032887;28;20448;-68
2022/06/09 10:38:15;;;;;;;1999.90;999.90;;;21.70;99.90;;;;;;5033990;28;20431;-69
2022/06/09 10:40:46;;;;;;;1999.90;999.90;;;21.20;99.90;;;;;;5033246;28;20450;-69
2022/06/09 10:43:21;;;;;;;1999.90;999.90;;;21.10;99.90;;;;;;5046995;28;20470;-69
2022/06/09 10:45:55;;;;;;;1999.90;999.90;;;21.10;99.90;;;;;;5052677;28;20454;-70
2022/06/09 10:57:05;;;;;;;1999.90;999.90;;;22.20;99.90;;;;;;5042816;28;20540;-70
2022/06/09 10:59:38;;;;;;;1999.90;999.90;;;22.80;99.90;;;;;;5042165;28;20463;-70
2022/06/09 11:02:12;;;;;;;1999.90;999.90;;;22.80;99.90;;;;;;5041113;28;21062;-69
2022/06/09 11:04:39;;;;;;;1999.90;999.90;;;23.20;99.90;;;;;;5037757;28;20523;-70
2022/06/09 11:07:29;;;;;;;1999.90;999.90;;;23.20;99.80;;;;;;5041365;28;20521;-70
2022/06/09 11:10:09;;;;;;;1999.90;999.90;;;23.20;99.90;;;;;;5046312;28;20717;-69
2022/06/09 11:12:47;;;;;;;1999.90;999.90;;;23.50;99.80;;;;;;5045671;28;20906;-69
2022/06/09 11:15:26;;;;;;;1999.90;999.90;;;22.80;98.50;;;;;;5045375;28;20458;-70
2022/06/09 11:18:12;;;;;;;1999.90;999.90;;;22.40;99.20;;;;;;5045765;28;20885;-70
2022/06/09 11:20:54;;;;;;;1999.90;999.90;;;22.00;99.90;;;;;;5048775;28;20516;-69
2022/06/09 11:23:33;;;;;;;1999.90;999.90;;;22.10;99.90;;;;;;5042201;28;20478;-69
2022/06/09 11:26:11;;;;;;;1999.90;999.90;;;22.30;99.90;;;;;;5047974;28;20469;-70
2022/06/09 11:28:50;;;;;;;1999.90;999.90;;;21.90;99.90;;;;;;5039877;28;20469;-68
2022/06/09 11:31:40;;;;;;;1999.90;999.90;;;22.00;99.90;;;;;;5047931;28;20493;-69
2022/06/09 11:34:29;;;;;;;1999.90;999.90;;;22.50;99.90;;;;;;5047408;28;20470;-68
2022/06/09 11:37:04;;;;;;;1999.90;999.90;;;22.60;99.90;;;;;;5044892;28;20977;-70
2022/06/09 11:39:46;;;;;;;1999.90;999.90;;;23.20;99.50;;;;;;5043594;28;20461;-69
2022/06/09 11:42:27;;;;;;;1999.90;999.90;;;23.40;98.20;;;;;;5041280;28;20907;-68
2022/06/09 11:44:56;;;;;;;1999.90;999.90;;;23.20;98.50;;;;;;5048335;28;20492;-70
2022/06/09 11:47:28;;;;;;;1999.90;999.90;;;23.00;99.50;;;;;;5044558;28;20467;-68
2022/06/09 11:49:58;;;;;;;1999.90;999.90;;;23.20;99.00;;;;;;5046214;28;20544;-69
2022/06/09 11:52:30;;;;;;;1999.90;999.90;;;23.40;99.40;;;;;;5042066;28;20560;-70
2022/06/09 11:55:04;;;;;;;1999.90;999.90;;;23.70;98.20;;;;;;5042941;28;20451;-69
2022/06/09 11:57:47;;;;;;;1999.90;999.90;;;23.70;97.30;;;;;;5042759;28;20490;-69
2022/06/09 12:00:38;;;;;;;1999.90;999.90;;;23.40;97.70;;;;;;5041480;28;20969;-70
2022/06/09 12:03:27;;;;;;;1999.90;999.90;;;23.00;98.30;;;;;;5045080;28;20527;-69
2022/06/09 12:05:59;;;;;;;1999.90;999.90;;;22.50;98.40;;;;;;5091460;22;20500;-70
2022/06/09 12:08:38;;;;;;;1999.90;999.90;;;22.60;98.80;;;;;;5091085;28;20471;-68
2022/06/09 12:11:10;;;;;;;1999.90;999.90;;;23.20;98.40;;;;;;5087534;28;20513;-69
2022/06/09 12:13:59;;;;;;;1999.90;999.90;;;23.30;97.50;;;;;;5090234;28;20546;-69
2022/06/09 12:16:31;;;;;;;1999.90;999.90;;;23.70;97.30;;;;;;5090331;28;20464;-67
2022/06/09 12:19:16;;;;;;;1999.90;999.90;;;23.90;97.50;;;;;;5088239;28;20448;-70
2022/06/09 12:21:45;;;;;;;1999.90;999.90;;;24.30;96.50;;;;;;5091488;28;20464;-69
2022/06/09 12:24:37;;;;;;;1999.90;999.90;;;24.20;96.50;;;;;;5084240;28;20481;-69
2022/06/09 12:27:19;;;;;;;1999.90;999.90;;;23.80;96.90;;;;;;5066391;28;20467;-69
2022/06/09 12:30:19;;;;;;;1999.90;999.90;;;23.60;97.70;;;;;;5090339;28;20526;-70
2022/06/09 12:32:48;;;;;;;1999.90;999.90;;;23.40;97.80;;;;;;5083920;28;20495;-69
2022/06/09 12:35:22;;;;;;;1999.90;999.90;;;23.80;98.10;;;;;;5087307;28;20484;-68
2022/06/09 12:37:55;;;;;;;1999.90;999.90;;;24.20;97.00;;;;;;5085929;28;20957;-70
2022/06/09 12:40:26;;;;;;;1999.90;999.90;;;24.40;96.50;;;;;;5088424;28;20539;-68